Time;durP1;ratioP1;P1;durP2;ratioP2;P2;SDS_P1;SDS_P2;PMS_P1;PMS_P2;Temp;Humidity;BMP_temperature;BMP_pressure;BME280_temperature;BME280_humidity;BME280_pressure;Samples;Min_cycle;Max_cycle;Signal;HPM_P1;HPM_P2
2022/04/06 00:00:43;;;;;;;13.50;12.10;;;9.30;1.00;;;;;;4936084;28;20503;-75
2022/04/06 00:03:12;;;;;;;13.65;12.25;;;9.20;1.00;;;;;;4927222;28;20348;-78
2022/04/06 00:05:45;;;;;;;14.73;13.00;;;9.20;1.00;;;;;;4917651;28;20286;-78
2022/04/06 00:08:11;;;;;;;13.23;11.70;;;9.20;1.00;;;;;;4909675;28;20529;-78
2022/04/06 00:10:46;;;;;;;13.57;11.73;;;9.20;1.00;;;;;;4920456;28;20722;-77
2022/04/06 00:13:14;;;;;;;12.65;11.35;;;9.20;1.00;;;;;;4929039;28;20984;-76
2022/04/06 00:15:42;;;;;;;13.03;11.00;;;9.20;1.00;;;;;;4935681;28;20328;-76
2022/04/06 00:18:12;;;;;;;12.68;11.25;;;9.30;1.00;;;;;;4923586;28;20449;-78
2022/04/06 00:20:39;;;;;;;14.37;12.87;;;9.30;1.00;;;;;;4901180;28;22800;-78
2022/04/06 00:23:06;;;;;;;14.05;12.02;;;9.30;1.00;;;;;;4921945;28;20675;-77
2022/04/06 00:25:33;;;;;;;11.93;10.55;;;9.30;1.00;;;;;;4923250;28;20293;-79
2022/04/06 00:28:00;;;;;;;12.17;10.60;;;9.30;1.00;;;;;;4915666;28;20277;-80
2022/04/06 00:30:28;;;;;;;12.60;11.27;;;9.30;1.00;;;;;;4919228;28;20574;-79
2022/04/06 00:32:54;;;;;;;12.00;10.80;;;9.30;1.00;;;;;;4918940;28;20589;-78
2022/04/06 00:35:31;;;;;;;11.90;9.70;;;9.30;1.00;;;;;;4926695;28;20430;-78
2022/04/06 00:37:59;;;;;;;12.10;10.13;;;9.30;1.00;;;;;;4927434;28;20481;-76
2022/04/06 00:40:26;;;;;;;12.17;10.90;;;9.30;1.00;;;;;;4949933;28;20461;-78
2022/04/06 00:42:53;;;;;;;11.43;9.77;;;9.40;1.00;;;;;;4946889;28;20439;-77
2022/04/06 00:45:20;;;;;;;10.98;9.73;;;9.40;1.00;;;;;;4955485;28;20456;-77
2022/04/06 00:47:48;;;;;;;10.87;9.63;;;9.40;1.00;;;;;;4946778;28;20263;-75
2022/04/06 00:50:15;;;;;;;12.30;9.97;;;9.40;1.00;;;;;;4921138;28;20546;-77
2022/04/06 00:52:43;;;;;;;12.90;10.40;;;9.40;1.00;;;;;;4912824;28;20485;-76
2022/04/06 00:55:12;;;;;;;12.77;10.73;;;9.40;1.00;;;;;;4910811;28;20568;-77
2022/04/06 00:57:42;;;;;;;12.57;11.17;;;9.40;1.00;;;;;;4918126;28;20409;-76
2022/04/06 01:00:14;;;;;;;13.77;12.27;;;9.40;1.00;;;;;;4917414;28;20576;-78
2022/04/06 01:02:42;;;;;;;13.88;12.15;;;9.30;1.00;;;;;;4915482;28;20253;-79
2022/04/06 01:05:13;;;;;;;16.40;13.38;;;9.30;1.00;;;;;;4927466;28;20712;-78
2022/04/06 01:07:43;;;;;;;14.98;12.98;;;9.30;1.00;;;;;;4927151;28;20238;-76
2022/04/06 01:10:14;;;;;;;16.07;13.73;;;9.30;1.00;;;;;;4919721;28;20241;-77
2022/04/06 01:12:45;;;;;;;16.23;14.40;;;9.30;1.00;;;;;;4924892;28;20441;-76
2022/04/06 01:15:11;;;;;;;14.73;12.60;;;9.30;1.00;;;;;;4927593;28;20547;-78
2022/04/06 01:17:43;;;;;;;16.57;14.80;;;9.30;1.00;;;;;;4932110;28;20550;-79
2022/04/06 01:20:14;;;;;;;16.37;13.17;;;9.30;1.00;;;;;;4922348;28;20492;-79
2022/04/06 01:22:42;;;;;;;14.80;13.00;;;9.30;1.00;;;;;;4916831;28;21157;-79
2022/04/06 01:25:14;;;;;;;15.57;13.40;;;9.30;1.00;;;;;;4934752;28;20241;-75
2022/04/06 01:27:40;;;;;;;15.50;13.20;;;9.30;1.00;;;;;;4959408;28;21334;-79
2022/04/06 01:30:13;;;;;;;15.93;13.37;;;9.30;1.00;;;;;;4944941;28;20442;-79
2022/04/06 01:32:39;;;;;;;15.53;12.80;;;9.30;1.00;;;;;;4937192;28;20470;-76
2022/04/06 01:35:09;;;;;;;13.63;12.20;;;9.30;1.00;;;;;;4923403;29;21281;-76
2022/04/06 01:37:36;;;;;;;16.87;13.40;;;9.30;1.00;;;;;;4915312;28;20439;-79
2022/04/06 01:40:11;;;;;;;18.47;13.87;;;9.30;1.00;;;;;;4915665;29;20590;-76
2022/04/06 01:42:37;;;;;;;15.73;14.03;;;9.30;1.00;;;;;;4905018;28;20481;-78
2022/04/06 01:45:05;;;;;;;16.80;14.30;;;9.30;1.00;;;;;;4919119;28;21262;-77
2022/04/06 01:47:33;;;;;;;14.70;13.20;;;9.30;1.00;;;;;;4938079;28;20474;-79
2022/04/06 01:52:44;;;;;;;16.70;14.63;;;9.40;1.00;;;;;;4941904;28;20331;-78
2022/04/06 01:55:16;;;;;;;15.00;13.17;;;9.40;1.00;;;;;;4939522;28;20489;-78
2022/04/06 01:57:44;;;;;;;14.73;13.13;;;9.40;1.00;;;;;;4933825;28;20556;-76
2022/04/06 02:00:16;;;;;;;16.77;14.07;;;9.40;1.00;;;;;;4938455;28;20422;-79
2022/04/06 02:02:46;;;;;;;15.20;13.60;;;9.40;1.00;;;;;;4942510;28;20513;-78
2022/04/06 02:05:14;;;;;;;15.67;14.00;;;9.40;1.00;;;;;;4941757;28;20583;-77
2022/04/06 02:07:42;;;;;;;16.27;14.50;;;9.40;1.00;;;;;;4939999;28;20425;-79
2022/04/06 02:10:14;;;;;;;16.63;13.60;;;9.40;1.00;;;;;;4942846;28;20417;-77
2022/04/06 02:12:42;;;;;;;16.30;14.20;;;9.40;1.00;;;;;;4945331;28;20527;-80
2022/04/06 02:15:14;;;;;;;15.50;13.73;;;9.40;1.00;;;;;;4937402;28;20509;-76
2022/04/06 02:17:42;;;;;;;15.73;13.65;;;9.40;1.00;;;;;;4942125;28;21174;-77
2022/04/06 02:20:13;;;;;;;18.23;15.77;;;9.30;1.00;;;;;;4941474;28;20249;-78
2022/04/06 02:22:40;;;;;;;16.20;14.17;;;9.30;1.00;;;;;;4941769;28;20541;-76
2022/04/06 02:25:12;;;;;;;16.38;14.27;;;9.30;1.00;;;;;;4938376;28;20453;-79
2022/04/06 02:27:46;;;;;;;18.13;14.43;;;9.30;1.00;;;;;;4935778;28;20368;-76
2022/04/06 02:30:14;;;;;;;16.50;14.77;;;9.30;1.00;;;;;;4941367;28;20460;-76
2022/04/06 02:32:40;;;;;;;17.00;15.00;;;9.30;1.00;;;;;;4945365;28;20280;-77
2022/04/06 02:35:12;;;;;;;15.70;14.10;;;9.30;1.00;;;;;;4941182;28;20515;-77
2022/04/06 02:37:41;;;;;;;16.50;13.97;;;9.30;1.00;;;;;;4937132;28;20481;-78
2022/04/06 02:40:13;;;;;;;17.70;15.20;;;9.30;1.00;;;;;;4939592;28;20604;-79
2022/04/06 02:42:40;;;;;;;18.30;15.40;;;9.30;1.00;;;;;;4930543;28;20488;-79
2022/04/06 02:45:12;;;;;;;16.40;14.60;;;9.30;1.00;;;;;;4943470;28;20485;-77
2022/04/06 02:47:39;;;;;;;16.27;14.67;;;9.30;1.00;;;;;;4929287;28;20627;-77
2022/04/06 02:50:07;;;;;;;15.07;13.57;;;9.30;1.00;;;;;;4937718;28;20572;-76
2022/04/06 02:52:33;;;;;;;16.77;14.23;;;9.30;1.00;;;;;;4928051;28;20521;-80
2022/04/06 02:55:02;;;;;;;15.85;14.15;;;9.30;1.00;;;;;;4938079;28;20283;-78
2022/04/06 02:57:33;;;;;;;17.80;14.57;;;9.30;1.00;;;;;;4936778;28;20296;-78
2022/04/06 03:00:00;;;;;;;16.47;14.50;;;9.30;1.00;;;;;;4931727;28;21608;-78
2022/04/06 03:02:32;;;;;;;15.47;13.90;;;9.30;1.00;;;;;;4921173;28;21048;-77
2022/04/06 03:04:59;;;;;;;15.73;13.53;;;9.20;1.00;;;;;;4918590;28;20455;-75
2022/04/06 03:07:25;;;;;;;15.93;13.90;;;9.30;1.00;;;;;;4919096;28;20494;-78
2022/04/06 03:09:54;;;;;;;16.70;14.93;;;9.30;1.00;;;;;;4923886;28;20458;-76
2022/04/06 03:12:20;;;;;;;14.63;13.07;;;9.30;1.00;;;;;;4919349;28;20581;-77
2022/04/06 03:14:47;;;;;;;16.50;13.93;;;9.30;1.00;;;;;;4914850;28;20265;-79
2022/04/06 03:17:15;;;;;;;16.50;14.77;;;9.30;1.00;;;;;;4919541;28;20253;-76
2022/04/06 03:19:43;;;;;;;16.38;13.65;;;9.30;1.00;;;;;;4917820;28;20534;-77
2022/04/06 03:22:17;;;;;;;16.07;14.27;;;9.30;1.00;;;;;;4912096;28;20248;-78
2022/04/06 03:24:44;;;;;;;19.27;14.27;;;9.20;1.00;;;;;;4914733;28;20449;-78
2022/04/06 03:27:14;;;;;;;15.23;13.50;;;9.20;1.00;;;;;;4903650;28;20660;-78
2022/04/06 03:29:41;;;;;;;15.27;13.27;;;9.20;1.00;;;;;;4918515;28;20462;-80
2022/04/06 03:32:12;;;;;;;14.98;13.13;;;9.30;1.00;;;;;;4923270;29;20293;-79
2022/04/06 03:34:39;;;;;;;13.07;11.53;;;9.20;1.00;;;;;;4918234;28;20276;-77
2022/04/06 03:37:09;;;;;;;13.63;11.27;;;9.20;1.00;;;;;;4884576;28;1034041;-78
2022/04/06 03:39:39;;;;;;;15.20;12.73;;;9.20;1.00;;;;;;4920090;28;21434;-77
2022/04/06 03:42:06;;;;;;;15.15;12.25;;;9.20;1.00;;;;;;4919157;28;20566;-78
2022/04/06 03:44:34;;;;;;;14.13;12.68;;;9.20;1.00;;;;;;4918498;28;20309;-78
2022/04/06 03:47:01;;;;;;;13.45;11.65;;;9.20;1.00;;;;;;4926297;28;20392;-79
2022/04/06 03:49:31;;;;;;;14.18;11.77;;;9.20;1.00;;;;;;4920896;28;21430;-79
2022/04/06 03:51:58;;;;;;;13.27;11.97;;;9.20;1.00;;;;;;4893467;29;20346;-76
2022/04/06 03:54:26;;;;;;;14.05;11.35;;;9.20;1.00;;;;;;4930944;28;20605;-77
2022/04/06 03:56:54;;;;;;;12.55;10.63;;;9.20;1.00;;;;;;4926860;28;20261;-78
2022/04/06 03:59:22;;;;;;;14.60;11.43;;;9.20;1.00;;;;;;4913659;28;20240;-75
2022/04/06 04:01:56;;;;;;;12.97;10.87;;;9.20;1.00;;;;;;4892622;28;20535;-80
2022/04/06 04:04:25;;;;;;;12.38;11.10;;;9.20;1.00;;;;;;4900571;28;20434;-78
2022/04/06 04:06:52;;;;;;;12.37;10.53;;;9.20;1.00;;;;;;4901230;28;20378;-77
2022/04/06 04:09:21;;;;;;;15.05;11.15;;;9.20;1.00;;;;;;4910776;28;21614;-77
2022/04/06 04:11:50;;;;;;;15.82;11.90;;;9.10;1.00;;;;;;4921267;28;20280;-75
2022/04/06 04:14:16;;;;;;;14.93;11.70;;;9.10;1.00;;;;;;4905160;28;20276;-77
2022/04/06 04:16:44;;;;;;;14.03;11.80;;;9.20;1.00;;;;;;4905986;28;20289;-77
2022/04/06 04:19:13;;;;;;;14.23;10.75;;;9.20;1.00;;;;;;4917901;28;20481;-77
2022/04/06 04:21:39;;;;;;;13.10;11.05;;;9.20;1.00;;;;;;4929025;28;20261;-76
2022/04/06 04:24:14;;;;;;;14.68;10.80;;;9.20;1.00;;;;;;4943029;28;20328;-76
2022/04/06 04:26:41;;;;;;;13.50;11.60;;;9.20;1.00;;;;;;4934196;28;20247;-77
2022/04/06 04:29:14;;;;;;;13.25;10.73;;;9.20;1.00;;;;;;4932334;28;20270;-75
2022/04/06 04:31:41;;;;;;;11.15;9.95;;;9.20;1.00;;;;;;4933736;28;20244;-76
2022/04/06 04:34:08;;;;;;;12.35;11.05;;;9.10;1.00;;;;;;4925700;28;20256;-77
2022/04/06 04:36:35;;;;;;;14.40;10.77;;;9.10;1.00;;;;;;4905669;28;20284;-77
2022/04/06 04:39:02;;;;;;;13.40;11.15;;;9.10;1.00;;;;;;4914928;28;20465;-78
2022/04/06 04:41:33;;;;;;;12.68;11.02;;;9.10;1.00;;;;;;4921357;28;20251;-76
2022/04/06 04:44:00;;;;;;;12.70;11.35;;;9.10;1.00;;;;;;4912616;28;20316;-76
2022/04/06 04:46:31;;;;;;;12.88;11.50;;;9.10;1.00;;;;;;4926579;28;20276;-76
2022/04/06 04:49:04;;;;;;;12.63;11.00;;;9.10;1.00;;;;;;4926815;28;20241;-76
2022/04/06 04:51:32;;;;;;;14.53;11.90;;;9.10;1.00;;;;;;4924318;28;20619;-76
2022/04/06 04:54:04;;;;;;;15.52;11.85;;;9.10;1.00;;;;;;4939508;28;20449;-76
2022/04/06 04:56:36;;;;;;;14.77;11.50;;;9.10;1.00;;;;;;4922451;28;20237;-75
2022/04/06 04:59:04;;;;;;;15.90;12.17;;;9.10;1.00;;;;;;4930646;28;20446;-74
2022/04/06 05:01:33;;;;;;;16.93;12.17;;;9.10;1.00;;;;;;4916488;28;20477;-74
2022/04/06 05:04:09;;;;;;;13.70;11.73;;;9.20;1.00;;;;;;4930113;28;20449;-75
2022/04/06 05:06:38;;;;;;;17.53;12.93;;;9.20;1.00;;;;;;4947670;28;20461;-76
2022/04/06 05:09:04;;;;;;;13.37;11.97;;;9.20;1.00;;;;;;4934271;28;20471;-75
2022/04/06 05:11:31;;;;;;;16.60;13.00;;;9.10;1.00;;;;;;4939706;28;22833;-77
2022/04/06 05:13:58;;;;;;;14.75;12.88;;;9.10;1.00;;;;;;4922456;28;20466;-77
2022/04/06 05:16:24;;;;;;;16.97;12.47;;;9.10;1.00;;;;;;4901925;28;20245;-78
2022/04/06 05:18:54;;;;;;;19.20;13.73;;;9.10;1.00;;;;;;4894525;28;20656;-77
2022/04/06 05:21:24;;;;;;;17.60;13.67;;;9.10;1.00;;;;;;4904350;28;20462;-78
2022/04/06 05:23:51;;;;;;;17.70;12.85;;;9.10;1.00;;;;;;4912623;28;20438;-77
2022/04/06 05:26:18;;;;;;;17.53;13.37;;;9.10;1.00;;;;;;4917881;28;20286;-78
2022/04/06 05:28:44;;;;;;;18.93;13.73;;;9.10;1.00;;;;;;4900906;28;20446;-79
2022/04/06 05:31:11;;;;;;;17.17;14.50;;;9.20;1.00;;;;;;4918060;28;20450;-78
2022/04/06 05:33:38;;;;;;;18.42;13.20;;;9.20;1.00;;;;;;4930008;28;21224;-78
2022/04/06 05:36:06;;;;;;;15.32;11.80;;;9.10;1.00;;;;;;4924085;28;20285;-76
2022/04/06 05:38:35;;;;;;;20.50;13.57;;;9.10;1.00;;;;;;4939522;28;20343;-76
2022/04/06 05:41:03;;;;;;;14.93;12.83;;;9.10;1.00;;;;;;4932297;28;20565;-79
2022/04/06 05:43:34;;;;;;;14.95;13.18;;;9.10;1.00;;;;;;4937569;28;20476;-77
2022/04/06 05:46:01;;;;;;;14.77;13.03;;;9.20;1.00;;;;;;4928215;28;20241;-79
2022/04/06 05:48:27;;;;;;;18.73;12.00;;;9.30;1.00;;;;;;4940708;28;20563;-82
2022/04/06 05:50:54;;;;;;;15.13;12.53;;;9.30;1.00;;;;;;4934017;28;20457;-78
2022/04/06 05:53:25;;;;;;;14.57;13.00;;;9.30;1.00;;;;;;4916967;28;20510;-81
2022/04/06 05:55:51;;;;;;;14.10;11.70;;;9.30;1.00;;;;;;4921229;28;20320;-78
2022/04/06 05:58:18;;;;;;;15.57;11.23;;;9.30;1.00;;;;;;4924764;28;21109;-79
2022/04/06 06:00:45;;;;;;;15.13;12.33;;;9.40;1.00;;;;;;4939488;28;20245;-77
2022/04/06 06:03:16;;;;;;;19.13;13.90;;;9.40;1.00;;;;;;4940427;28;20460;-77
2022/04/06 06:05:43;;;;;;;18.10;13.70;;;9.50;1.00;;;;;;4934933;28;20481;-77
2022/04/06 06:08:14;;;;;;;16.53;12.20;;;9.50;1.00;;;;;;4949625;28;20457;-77
2022/04/06 06:10:44;;;;;;;13.60;12.20;;;9.50;1.00;;;;;;4955811;28;20634;-80
2022/04/06 06:13:14;;;;;;;17.60;13.60;;;9.60;1.00;;;;;;4949376;28;20445;-78
2022/04/06 06:15:41;;;;;;;16.20;11.87;;;9.60;1.00;;;;;;4959112;28;21699;-78
2022/04/06 06:18:08;;;;;;;16.30;12.00;;;9.60;1.00;;;;;;4943331;28;20496;-78
2022/04/06 06:20:40;;;;;;;13.80;11.97;;;9.70;1.00;;;;;;4944948;28;20468;-76
2022/04/06 06:23:07;;;;;;;14.57;12.93;;;9.70;1.00;;;;;;4932153;28;20553;-76
2022/04/06 06:25:35;;;;;;;15.23;12.23;;;9.70;1.00;;;;;;4930085;28;20552;-77
2022/04/06 06:28:06;;;;;;;15.17;12.80;;;9.70;1.00;;;;;;4940967;28;20429;-77
2022/04/06 06:30:34;;;;;;;17.30;14.03;;;9.70;1.00;;;;;;4927474;28;20497;-78
2022/04/06 06:33:05;;;;;;;19.10;14.97;;;9.70;1.00;;;;;;4915650;28;20426;-76
2022/04/06 06:35:31;;;;;;;21.43;17.33;;;9.60;1.00;;;;;;4928152;28;20609;-76
2022/04/06 06:37:58;;;;;;;20.43;15.63;;;9.60;1.00;;;;;;4937696;28;20970;-78
2022/04/06 06:40:26;;;;;;;18.30;15.80;;;9.60;1.00;;;;;;4931205;28;20468;-78
2022/04/06 06:42:55;;;;;;;26.10;17.73;;;9.70;1.00;;;;;;4935320;28;20481;-79
2022/04/06 06:45:23;;;;;;;24.37;17.33;;;9.80;1.00;;;;;;4942559;28;20485;-78
2022/04/06 06:47:54;;;;;;;17.23;14.60;;;9.90;1.00;;;;;;4918637;28;20451;-77
2022/04/06 06:50:21;;;;;;;20.53;15.83;;;10.10;1.00;;;;;;4940431;28;20761;-75
2022/04/06 06:52:48;;;;;;;19.83;15.67;;;10.10;1.00;;;;;;4930358;28;20660;-78
2022/04/06 06:55:22;;;;;;;19.13;15.13;;;10.10;1.00;;;;;;4926926;28;20485;-77
2022/04/06 06:57:53;;;;;;;20.80;16.30;;;10.10;1.00;;;;;;4934174;28;20453;-78
2022/04/06 07:00:20;;;;;;;23.73;16.90;;;10.10;1.00;;;;;;4923793;28;20517;-78
2022/04/06 07:02:49;;;;;;;21.17;18.07;;;10.20;1.00;;;;;;4893573;28;20458;-78
2022/04/06 07:05:16;;;;;;;20.67;16.57;;;10.20;1.00;;;;;;4917904;28;20479;-76
2022/04/06 07:07:54;;;;;;;22.63;17.33;;;10.30;1.00;;;;;;4897788;28;20481;-76
2022/04/06 07:10:22;;;;;;;25.30;17.53;;;10.30;1.00;;;;;;4917001;28;20486;-78
2022/04/06 07:12:50;;;;;;;22.80;17.63;;;10.30;1.00;;;;;;4910459;28;20458;-77
2022/04/06 07:15:17;;;;;;;23.53;15.70;;;10.40;1.00;;;;;;4913581;28;20509;-75
2022/04/06 07:17:43;;;;;;;21.57;17.00;;;10.40;1.00;;;;;;4919427;28;20585;-79
2022/04/06 07:20:17;;;;;;;22.80;17.20;;;10.50;1.00;;;;;;4922116;28;20446;-77
2022/04/06 07:22:43;;;;;;;23.20;16.97;;;10.60;1.00;;;;;;4918226;28;20508;-78
2022/04/06 07:25:15;;;;;;;19.90;16.67;;;10.70;1.00;;;;;;4934943;28;20497;-77
2022/04/06 07:27:41;;;;;;;21.13;16.07;;;10.80;1.00;;;;;;4955164;23;21542;-77
2022/04/06 07:30:15;;;;;;;19.10;16.70;;;10.80;1.00;;;;;;4950289;28;20472;-78
2022/04/06 07:32:42;;;;;;;20.83;16.80;;;10.90;1.00;;;;;;4949850;28;20584;-76
2022/04/06 07:35:13;;;;;;;21.90;18.80;;;11.00;1.00;;;;;;4949232;28;20478;-76
2022/04/06 07:37:48;;;;;;;21.03;16.00;;;11.20;1.00;;;;;;4958991;28;20430;-78
2022/04/06 07:40:16;;;;;;;19.70;14.90;;;11.20;1.00;;;;;;4956388;28;20480;-76
2022/04/06 07:42:43;;;;;;;18.73;14.93;;;11.20;1.00;;;;;;4957768;28;20525;-76
2022/04/06 07:45:13;;;;;;;22.90;15.20;;;11.10;1.00;;;;;;4975037;28;21082;-76
2022/04/06 07:47:44;;;;;;;16.70;13.70;;;11.10;1.00;;;;;;4970378;28;20424;-80
2022/04/06 07:50:15;;;;;;;16.70;14.90;;;11.20;1.00;;;;;;4971734;28;20516;-77
2022/04/06 07:52:43;;;;;;;18.23;14.20;;;11.30;1.00;;;;;;4974800;28;20463;-74
2022/04/06 07:55:11;;;;;;;18.23;15.07;;;11.40;1.00;;;;;;4967652;28;20570;-77
2022/04/06 07:57:39;;;;;;;15.90;13.37;;;11.50;1.00;;;;;;4944466;23;20808;-77
2022/04/06 08:00:08;;;;;;;15.70;12.47;;;11.60;1.00;;;;;;4912818;28;20617;-76
2022/04/06 08:02:35;;;;;;;19.40;13.53;;;11.80;1.00;;;;;;4906464;28;20435;-74
2022/04/06 08:05:02;;;;;;;15.63;12.53;;;11.90;1.00;;;;;;4917660;28;20597;-78
2022/04/06 08:07:30;;;;;;;15.50;11.80;;;12.10;1.00;;;;;;4926365;28;20447;-76
2022/04/06 08:09:58;;;;;;;15.47;11.63;;;12.40;1.00;;;;;;4923312;28;20691;-77
2022/04/06 08:12:25;;;;;;;12.57;11.20;;;12.60;1.00;;;;;;4918042;28;20556;-76
2022/04/06 08:14:55;;;;;;;12.07;10.80;;;12.70;1.00;;;;;;4945721;28;20426;-77
2022/04/06 08:17:25;;;;;;;16.07;12.07;;;12.90;1.00;;;;;;4966373;23;20466;-78
2022/04/06 08:19:54;;;;;;;12.40;10.90;;;13.00;1.00;;;;;;4966644;28;20464;-78
2022/04/06 08:22:25;;;;;;;12.70;11.07;;;13.10;1.00;;;;;;4958905;28;20433;-78
2022/04/06 08:24:54;;;;;;;11.90;9.63;;;13.20;1.00;;;;;;4956506;28;20487;-78
2022/04/06 08:27:22;;;;;;;15.13;11.07;;;13.00;1.00;;;;;;4943111;28;20476;-78
2022/04/06 08:29:49;;;;;;;11.27;9.80;;;12.90;1.00;;;;;;4943402;28;20508;-77
2022/04/06 08:32:20;;;;;;;13.80;10.57;;;12.90;1.00;;;;;;4937252;28;20425;-77
2022/04/06 08:34:47;;;;;;;11.33;9.90;;;12.90;1.00;;;;;;4928331;28;20473;-76
2022/04/06 08:37:14;;;;;;;13.23;9.53;;;13.10;1.00;;;;;;4938981;23;21885;-76
2022/04/06 08:39:40;;;;;;;16.10;10.00;;;13.10;1.00;;;;;;4956017;28;21166;-76
2022/04/06 08:42:07;;;;;;;14.70;9.17;;;13.10;1.00;;;;;;4954887;28;20482;-78
2022/04/06 08:44:35;;;;;;;12.70;8.30;;;13.20;1.00;;;;;;4949885;28;20548;-75
2022/04/06 08:47:06;;;;;;;17.40;10.60;;;13.10;1.00;;;;;;4954190;28;20572;-78
2022/04/06 08:49:36;;;;;;;17.77;9.27;;;13.00;1.00;;;;;;4954887;28;20504;-79
2022/04/06 08:52:04;;;;;;;12.23;8.50;;;12.90;1.00;;;;;;4961479;28;20575;-78
2022/04/06 08:54:34;;;;;;;13.30;8.83;;;12.80;1.00;;;;;;4958805;28;20445;-77
2022/04/06 08:57:00;;;;;;;13.50;8.90;;;12.70;1.00;;;;;;4969963;23;20496;-77
2022/04/06 08:59:27;;;;;;;11.87;9.27;;;12.60;1.00;;;;;;4957312;28;21051;-77
2022/04/06 09:01:57;;;;;;;13.70;9.07;;;12.40;1.00;;;;;;4958893;28;20548;-77
2022/04/06 09:04:25;;;;;;;11.13;8.23;;;12.40;1.00;;;;;;4951725;28;23523;-77
2022/04/06 09:06:55;;;;;;;11.43;9.30;;;12.50;1.00;;;;;;4955137;28;20474;-76
2022/04/06 09:09:24;;;;;;;11.73;6.87;;;12.50;1.00;;;;;;4950247;28;20473;-76
2022/04/06 09:11:54;;;;;;;13.53;8.03;;;12.70;1.00;;;;;;4955140;28;20457;-76
2022/04/06 09:14:35;;;;;;;13.03;8.30;;;12.80;1.00;;;;;;4947286;28;20445;-76
2022/04/06 09:17:06;;;;;;;12.60;7.90;;;12.90;1.00;;;;;;4950682;28;20479;-77
2022/04/06 09:19:37;;;;;;;9.27;7.57;;;13.00;1.00;;;;;;4955789;28;20441;-76
2022/04/06 09:22:07;;;;;;;12.37;7.70;;;13.00;1.00;;;;;;4945323;28;21342;-79
2022/04/06 09:24:34;;;;;;;11.83;8.30;;;13.00;1.00;;;;;;4938293;28;20441;-79
2022/04/06 09:27:07;;;;;;;10.97;8.60;;;13.10;1.00;;;;;;4947651;23;20450;-77
2022/04/06 09:29:44;;;;;;;11.03;7.70;;;13.20;1.00;;;;;;4961783;28;20483;-77
2022/04/06 09:32:13;;;;;;;11.10;7.87;;;13.30;1.00;;;;;;4957427;28;20460;-78
2022/04/06 09:34:41;;;;;;;10.67;8.20;;;13.40;1.00;;;;;;4956616;28;20528;-80
2022/04/06 09:37:23;;;;;;;10.40;7.57;;;13.40;1.00;;;;;;4955770;28;20559;-78
2022/04/06 09:39:51;;;;;;;10.10;9.00;;;13.60;1.00;;;;;;4941619;28;20487;-79
2022/04/06 09:42:27;;;;;;;11.03;7.73;;;13.80;1.00;;;;;;4937595;28;20477;-74
2022/04/06 09:47:58;;;;;;;11.50;8.20;;;14.20;1.00;;;;;;4943225;28;20461;-77
2022/04/06 09:50:27;;;;;;;9.63;6.93;;;14.20;1.00;;;;;;4934200;28;20487;-76
2022/04/06 09:52:56;;;;;;;9.87;7.00;;;14.10;1.00;;;;;;4939857;28;20501;-77
2022/04/06 09:55:26;;;;;;;12.97;8.40;;;13.90;1.00;;;;;;4934605;28;20440;-78
2022/04/06 09:57:58;;;;;;;8.93;7.57;;;13.60;1.00;;;;;;4934414;28;21018;-77
2022/04/06 10:00:26;;;;;;;12.30;8.57;;;13.50;1.00;;;;;;4941885;28;22286;-77
2022/04/06 10:03:03;;;;;;;10.07;7.40;;;13.40;1.00;;;;;;4943587;28;20469;-76
2022/04/06 10:05:35;;;;;;;12.23;8.40;;;13.30;1.00;;;;;;4945327;28;20477;-77
2022/04/06 10:08:03;;;;;;;11.27;8.57;;;13.30;1.00;;;;;;4941903;28;20468;-76
2022/04/06 10:10:34;;;;;;;11.97;8.90;;;13.30;1.00;;;;;;4946240;28;20519;-78
2022/04/06 10:13:07;;;;;;;9.73;7.90;;;13.20;1.00;;;;;;4941893;28;21717;-77
2022/04/06 10:15:36;;;;;;;9.10;7.97;;;13.10;1.00;;;;;;4933843;28;20485;-76
2022/04/06 10:18:04;;;;;;;12.50;8.17;;;13.10;1.00;;;;;;4940163;28;20456;-76
2022/04/06 10:20:40;;;;;;;10.10;7.37;;;13.20;1.00;;;;;;4939401;28;20726;-75
2022/04/06 10:23:19;;;;;;;11.13;8.23;;;13.40;1.00;;;;;;4947653;28;20495;-76
2022/04/06 10:25:59;;;;;;;13.50;8.73;;;13.60;1.00;;;;;;4944484;28;20507;-76
2022/04/06 10:28:26;;;;;;;14.00;8.77;;;13.60;1.00;;;;;;4945992;28;20559;-77
2022/04/06 10:31:17;;;;;;;11.13;8.63;;;13.30;1.00;;;;;;4946110;28;20471;-75
2022/04/06 10:33:45;;;;;;;8.50;7.60;;;13.20;1.00;;;;;;4963067;28;20452;-76
2022/04/06 10:36:19;;;;;;;11.77;8.50;;;13.00;1.00;;;;;;4959750;28;20457;-76
2022/04/06 10:39:11;;;;;;;10.30;9.20;;;12.90;1.00;;;;;;4957224;28;20456;-75
2022/04/06 10:41:41;;;;;;;10.27;8.40;;;12.80;1.00;;;;;;4948737;28;20461;-75
2022/04/06 10:44:08;;;;;;;9.67;7.60;;;12.80;1.00;;;;;;4939229;28;20595;-75
2022/04/06 10:46:38;;;;;;;11.27;7.97;;;12.80;1.00;;;;;;4940868;28;20426;-78
2022/04/06 10:49:15;;;;;;;10.33;7.80;;;12.80;1.00;;;;;;4938807;28;21337;-77
2022/04/06 10:51:43;;;;;;;8.63;7.67;;;12.90;1.00;;;;;;4933364;28;20555;-76
2022/04/06 10:54:40;;;;;;;11.10;7.10;;;13.20;1.00;;;;;;4936629;28;23311;-77
2022/04/06 10:57:07;;;;;;;12.43;7.83;;;13.60;1.00;;;;;;4941763;28;20461;-77
2022/04/06 10:59:34;;;;;;;9.83;7.40;;;14.00;1.00;;;;;;4951350;28;20651;-76
2022/04/06 11:02:19;;;;;;;9.80;7.97;;;14.40;1.00;;;;;;4965589;28;20730;-76
2022/04/06 11:04:48;;;;;;;12.60;7.30;;;14.90;1.00;;;;;;4956530;28;20468;-77
2022/04/06 11:10:06;;;;;;;8.00;6.57;;;14.80;1.00;;;;;;4962976;28;20526;-76
2022/04/06 11:10:12;;;;;;;10.80;7.40;;;14.60;1.00;;;;;;4959087;28;20441;-78
2022/04/06 11:12:57;;;;;;;9.33;7.37;;;14.30;1.00;;;;;;4964115;28;20607;-76
2022/04/06 11:15:34;;;;;;;15.00;7.07;;;13.90;1.00;;;;;;4949685;28;20469;-79
2022/04/06 11:18:00;;;;;;;11.43;7.00;;;13.80;1.00;;;;;;4945093;28;20491;-79
2022/04/06 11:20:39;;;;;;;12.17;7.20;;;13.70;1.00;;;;;;4940165;28;20493;-80
2022/04/06 11:23:08;;;;;;;8.27;6.53;;;13.60;1.00;;;;;;4945374;28;25071;-79
2022/04/06 11:25:36;;;;;;;9.30;7.40;;;13.40;1.00;;;;;;4934760;28;20413;-79
2022/04/06 11:28:07;;;;;;;9.93;7.80;;;13.40;1.00;;;;;;4947910;28;20544;-80
2022/04/06 11:30:38;;;;;;;11.13;7.10;;;13.30;1.00;;;;;;4942092;28;20434;-80
2022/04/06 11:33:06;;;;;;;11.90;7.90;;;13.30;1.00;;;;;;4938895;28;23040;-81
2022/04/06 11:35:40;;;;;;;8.60;6.80;;;13.20;1.00;;;;;;4942595;28;20437;-79
2022/04/06 11:38:08;;;;;;;10.00;7.97;;;13.10;1.00;;;;;;4954002;28;20489;-80
2022/04/06 11:40:39;;;;;;;11.97;7.50;;;13.00;1.00;;;;;;4944108;28;20576;-79
2022/04/06 11:43:06;;;;;;;10.47;7.07;;;13.00;1.00;;;;;;4950206;28;20472;-80
2022/04/06 11:45:39;;;;;;;8.67;7.13;;;13.00;1.00;;;;;;4948564;28;20505;-79
2022/04/06 11:48:07;;;;;;;14.07;7.50;;;12.90;1.00;;;;;;4950152;28;20473;-79
2022/04/06 11:50:37;;;;;;;13.17;7.00;;;12.90;1.00;;;;;;4939435;28;20456;-76
2022/04/06 11:53:05;;;;;;;8.23;7.00;;;12.80;1.00;;;;;;4946957;28;20486;-78
2022/04/06 11:55:44;;;;;;;8.43;7.50;;;12.80;1.00;;;;;;4951377;28;20473;-80
2022/04/06 11:58:27;;;;;;;12.07;7.90;;;12.70;1.00;;;;;;4949904;28;20485;-79
2022/04/06 12:00:59;;;;;;;10.83;8.50;;;12.70;1.00;;;;;;4944815;28;21359;-79
2022/04/06 12:03:28;;;;;;;11.03;8.07;;;12.70;1.00;;;;;;4945576;28;20564;-78
2022/04/06 12:05:58;;;;;;;9.57;8.10;;;12.80;1.00;;;;;;4940945;28;20460;-76
2022/04/06 12:08:24;;;;;;;11.00;7.50;;;12.70;1.00;;;;;;4939057;28;20527;-78
2022/04/06 12:10:57;;;;;;;9.00;7.17;;;12.60;1.00;;;;;;4943651;28;20456;-80
2022/04/06 12:13:25;;;;;;;12.00;7.80;;;12.60;1.00;;;;;;4939166;28;20539;-77
2022/04/06 12:15:57;;;;;;;9.13;6.70;;;12.50;1.00;;;;;;4947318;28;20430;-78
2022/04/06 12:18:25;;;;;;;8.23;7.10;;;12.40;1.00;;;;;;4942813;28;20521;-77
2022/04/06 12:24:43;;;;;;;12.20;7.43;;;12.50;1.00;;;;;;4924927;28;20465;-77
2022/04/06 12:27:26;;;;;;;10.30;7.23;;;12.50;1.00;;;;;;4931861;28;20475;-76
2022/04/06 12:30:11;;;;;;;8.87;6.77;;;12.50;1.00;;;;;;4951039;28;21351;-78
2022/04/06 12:32:49;;;;;;;8.33;7.03;;;12.50;1.00;;;;;;4946543;28;20466;-79
2022/04/06 12:35:20;;;;;;;8.47;6.63;;;12.50;1.00;;;;;;4942391;28;21182;-76
2022/04/06 12:37:47;;;;;;;10.70;6.50;;;12.60;1.00;;;;;;4946534;28;20437;-77
2022/04/06 12:40:27;;;;;;;10.50;7.70;;;12.50;1.00;;;;;;4950001;28;20483;-79
2022/04/06 12:42:54;;;;;;;8.43;6.40;;;12.60;1.00;;;;;;4939444;28;20500;-79
2022/04/06 12:45:20;;;;;;;11.23;6.97;;;12.60;1.00;;;;;;4934593;28;21607;-79
2022/04/06 12:47:47;;;;;;;9.33;6.60;;;12.70;1.00;;;;;;4945306;28;20544;-79
2022/04/06 12:50:19;;;;;;;9.00;6.63;;;12.60;1.00;;;;;;4932451;28;20441;-77
2022/04/06 12:52:47;;;;;;;12.97;7.80;;;12.60;1.00;;;;;;4935190;28;20459;-78
2022/04/06 12:55:15;;;;;;;13.77;7.37;;;12.60;1.00;;;;;;4947925;28;20544;-78
2022/04/06 12:57:49;;;;;;;9.83;7.30;;;12.60;1.00;;;;;;4947803;28;20435;-78
2022/04/06 13:00:27;;;;;;;9.93;6.90;;;12.50;1.00;;;;;;4940173;28;20433;-79
2022/04/06 13:02:54;;;;;;;10.80;7.00;;;12.40;1.00;;;;;;4955842;28;20413;-76
2022/04/06 13:05:26;;;;;;;9.80;7.03;;;12.40;1.00;;;;;;4951768;28;20434;-79
2022/04/06 13:07:54;;;;;;;14.63;7.67;;;12.40;1.00;;;;;;4950802;28;20454;-77